Terminal Aerodrome Forecast
Issued by NWS

Home | Current Version | Previous Version | Text Only | Print | Product List | Glossary On
Versions: 1 2 3 4 5 6 7 8 9 10 11 12 13 14 15
000
FTUS45 KRIW 032038 AAA
TAFCPR
TAF AMD
KCPR 032038Z 0321/0418 18011KT P6SM VCSH SCT090 BKN250
     FM040100 15012KT P6SM VCSH SCT070 BKN180
     FM040500 20011KT P6SM FEW080 SCT250
     FM040900 20009KT P6SM FEW100 SCT300 WS010/24035KT
     FM041400 22006KT P6SM SCT300=

USA.gov is the U.S. government's official web portal to all federal, state and local government web resources and services.